Weather at Philadelphia International Airport

Public forecast

Using degrees Fahrenheit for public forecast. Weather courtesy of forecast.io.

Current aviation weather report (METAR) for Philadelphia International Airport

Retrieved 2022/05/23 07:54 UTC (60 minutes ago):

KPHL 230754Z 34012KT 10SM BKN031 OVC037 19/12 A3011 RMK AO2 SLP195 T01890117

Aviation forecast (TAF) for Philadelphia International Airport

Retrieved 2022/05/23 06:22 UTC (3 hours ago):

TAF KPHL 230520Z 2306/2412 35006KT P6SM -SHRA BKN060 OVC100 FM230800 34010KT P6SM BKN200 FM231200 01012KT P6SM BKN200 FM232100 33005KT P6SM SCT100 FM232300 VRB04KT P6SM BKN100